sensor_id;sensor_type;location;lat;lon;timestamp;P1;durP1;ratioP1;P2;durP2;ratioP2
19675;SDS011;39539;52.202;9.876;2023-04-05T00:00:34;5.00;;;4.15;;
19675;SDS011;39539;52.202;9.876;2023-04-05T00:03:00;4.18;;;3.65;;
19675;SDS011;39539;52.202;9.876;2023-04-05T00:05:28;3.78;;;3.03;;
19675;SDS011;39539;52.202;9.876;2023-04-05T00:07:57;4.90;;;3.60;;
19675;SDS011;39539;52.202;9.876;2023-04-05T00:10:26;4.47;;;4.07;;
19675;SDS011;39539;52.202;9.876;2023-04-05T00:12:52;4.15;;;3.75;;
19675;SDS011;39539;52.202;9.876;2023-04-05T00:15:17;4.07;;;3.67;;
19675;SDS011;39539;52.202;9.876;2023-04-05T00:17:43;5.03;;;4.47;;
19675;SDS011;39539;52.202;9.876;2023-04-05T00:20:09;5.18;;;4.65;;
19675;SDS011;39539;52.202;9.876;2023-04-05T00:22:35;5.18;;;4.70;;
19675;SDS011;39539;52.202;9.876;2023-04-05T00:25:01;4.45;;;3.88;;
19675;SDS011;39539;52.202;9.876;2023-04-05T00:27:27;6.80;;;4.78;;
19675;SDS011;39539;52.202;9.876;2023-04-05T00:29:52;4.95;;;4.53;;
19675;SDS011;39539;52.202;9.876;2023-04-05T00:32:17;4.97;;;4.38;;
19675;SDS011;39539;52.202;9.876;2023-04-05T00:34:43;5.18;;;3.78;;
19675;SDS011;39539;52.202;9.876;2023-04-05T00:37:08;5.15;;;3.75;;
19675;SDS011;39539;52.202;9.876;2023-04-05T00:39:35;4.82;;;4.20;;
19675;SDS011;39539;52.202;9.876;2023-04-05T00:42:01;6.80;;;4.07;;
19675;SDS011;39539;52.202;9.876;2023-04-05T00:44:28;4.03;;;3.58;;
19675;SDS011;39539;52.202;9.876;2023-04-05T00:46:54;4.63;;;3.10;;
19675;SDS011;39539;52.202;9.876;2023-04-05T00:49:20;3.70;;;3.33;;
19675;SDS011;39539;52.202;9.876;2023-04-05T00:51:45;4.72;;;4.22;;
19675;SDS011;39539;52.202;9.876;2023-04-05T00:54:11;4.20;;;3.80;;
19675;SDS011;39539;52.202;9.876;2023-04-05T00:56:38;4.47;;;3.97;;
19675;SDS011;39539;52.202;9.876;2023-04-05T00:59:05;5.75;;;4.57;;
19675;SDS011;39539;52.202;9.876;2023-04-05T01:01:30;4.57;;;4.10;;
19675;SDS011;39539;52.202;9.876;2023-04-05T01:03:58;4.55;;;4.07;;
19675;SDS011;39539;52.202;9.876;2023-04-05T01:09:23;6.95;;;4.03;;
19675;SDS011;39539;52.202;9.876;2023-04-05T01:11:53;5.25;;;3.97;;
19675;SDS011;39539;52.202;9.876;2023-04-05T01:14:21;4.30;;;4.00;;
19675;SDS011;39539;52.202;9.876;2023-04-05T01:16:46;5.40;;;4.05;;
19675;SDS011;39539;52.202;9.876;2023-04-05T01:19:13;4.63;;;4.15;;
19675;SDS011;39539;52.202;9.876;2023-04-05T01:21:43;5.55;;;4.18;;
19675;SDS011;39539;52.202;9.876;2023-04-05T01:24:43;5.47;;;4.47;;
19675;SDS011;39539;52.202;9.876;2023-04-05T01:27:26;4.95;;;4.07;;
19675;SDS011;39539;52.202;9.876;2023-04-05T01:30:18;4.63;;;4.20;;
19675;SDS011;39539;52.202;9.876;2023-04-05T01:38:18;5.63;;;4.03;;
19675;SDS011;39539;52.202;9.876;2023-04-05T01:40:49;7.35;;;4.85;;
19675;SDS011;39539;52.202;9.876;2023-04-05T01:43:15;5.88;;;4.53;;
19675;SDS011;39539;52.202;9.876;2023-04-05T01:45:42;6.78;;;4.78;;
19675;SDS011;39539;52.202;9.876;2023-04-05T01:48:08;5.32;;;4.82;;
19675;SDS011;39539;52.202;9.876;2023-04-05T01:50:34;5.80;;;4.25;;
19675;SDS011;39539;52.202;9.876;2023-04-05T01:52:59;7.72;;;4.57;;
19675;SDS011;39539;52.202;9.876;2023-04-05T01:55:25;6.03;;;4.72;;
19675;SDS011;39539;52.202;9.876;2023-04-05T01:57:50;5.80;;;4.20;;
19675;SDS011;39539;52.202;9.876;2023-04-05T02:00:16;5.18;;;4.40;;
19675;SDS011;39539;52.202;9.876;2023-04-05T02:02:41;4.78;;;4.30;;
19675;SDS011;39539;52.202;9.876;2023-04-05T02:05:07;4.57;;;4.18;;
19675;SDS011;39539;52.202;9.876;2023-04-05T02:07:33;6.13;;;4.18;;
19675;SDS011;39539;52.202;9.876;2023-04-05T02:09:58;6.28;;;4.68;;
19675;SDS011;39539;52.202;9.876;2023-04-05T02:12:23;4.55;;;4.03;;
19675;SDS011;39539;52.202;9.876;2023-04-05T02:14:49;4.78;;;4.25;;
19675;SDS011;39539;52.202;9.876;2023-04-05T02:17:16;6.80;;;4.53;;
19675;SDS011;39539;52.202;9.876;2023-04-05T02:19:42;5.38;;;3.92;;
19675;SDS011;39539;52.202;9.876;2023-04-05T02:22:10;5.40;;;4.93;;
19675;SDS011;39539;52.202;9.876;2023-04-05T02:24:36;6.78;;;5.22;;
19675;SDS011;39539;52.202;9.876;2023-04-05T02:27:01;4.65;;;4.20;;
19675;SDS011;39539;52.202;9.876;2023-04-05T02:29:27;4.57;;;4.18;;
19675;SDS011;39539;52.202;9.876;2023-04-05T02:31:52;4.65;;;4.00;;
19675;SDS011;39539;52.202;9.876;2023-04-05T02:34:18;5.78;;;4.20;;
19675;SDS011;39539;52.202;9.876;2023-04-05T02:36:43;6.25;;;4.50;;
19675;SDS011;39539;52.202;9.876;2023-04-05T02:39:09;5.28;;;4.55;;
19675;SDS011;39539;52.202;9.876;2023-04-05T02:41:35;6.38;;;4.75;;
19675;SDS011;39539;52.202;9.876;2023-04-05T02:44:00;5.40;;;4.88;;
19675;SDS011;39539;52.202;9.876;2023-04-05T02:46:26;5.22;;;4.45;;
19675;SDS011;39539;52.202;9.876;2023-04-05T02:48:51;9.38;;;4.75;;
19675;SDS011;39539;52.202;9.876;2023-04-05T02:51:17;5.72;;;4.65;;
19675;SDS011;39539;52.202;9.876;2023-04-05T02:53:42;5.30;;;4.78;;
19675;SDS011;39539;52.202;9.876;2023-04-05T02:56:09;5.25;;;4.72;;
19675;SDS011;39539;52.202;9.876;2023-04-05T02:58:37;5.32;;;4.28;;
19675;SDS011;39539;52.202;9.876;2023-04-05T03:01:03;5.25;;;4.72;;
19675;SDS011;39539;52.202;9.876;2023-04-05T03:03:31;5.80;;;4.28;;
19675;SDS011;39539;52.202;9.876;2023-04-05T03:06:04;4.75;;;4.30;;
19675;SDS011;39539;52.202;9.876;2023-04-05T03:08:37;5.50;;;4.97;;
19675;SDS011;39539;52.202;9.876;2023-04-05T03:11:08;6.00;;;5.45;;
19675;SDS011;39539;52.202;9.876;2023-04-05T03:13:34;7.10;;;4.57;;
19675;SDS011;39539;52.202;9.876;2023-04-05T03:16:00;5.22;;;4.05;;
19675;SDS011;39539;52.202;9.876;2023-04-05T03:18:26;4.88;;;4.38;;
19675;SDS011;39539;52.202;9.876;2023-04-05T03:20:53;4.82;;;4.25;;
19675;SDS011;39539;52.202;9.876;2023-04-05T03:23:20;4.97;;;4.45;;
19675;SDS011;39539;52.202;9.876;2023-04-05T03:25:52;4.75;;;4.20;;
19675;SDS011;39539;52.202;9.876;2023-04-05T03:28:19;4.32;;;3.88;;
19675;SDS011;39539;52.202;9.876;2023-04-05T03:30:44;4.27;;;3.30;;
19675;SDS011;39539;52.202;9.876;2023-04-05T03:33:10;4.68;;;4.18;;
19675;SDS011;39539;52.202;9.876;2023-04-05T03:35:35;5.55;;;4.43;;
19675;SDS011;39539;52.202;9.876;2023-04-05T03:38:01;5.47;;;4.38;;
19675;SDS011;39539;52.202;9.876;2023-04-05T03:40:26;5.00;;;4.53;;
19675;SDS011;39539;52.202;9.876;2023-04-05T03:42:52;5.50;;;4.60;;
19675;SDS011;39539;52.202;9.876;2023-04-05T03:45:17;5.80;;;5.22;;
19675;SDS011;39539;52.202;9.876;2023-04-05T03:47:43;5.05;;;4.60;;
19675;SDS011;39539;52.202;9.876;2023-04-05T03:50:08;4.97;;;4.38;;
19675;SDS011;39539;52.202;9.876;2023-04-05T03:52:34;6.50;;;4.38;;
19675;SDS011;39539;52.202;9.876;2023-04-05T03:55:00;5.20;;;4.32;;
19675;SDS011;39539;52.202;9.876;2023-04-05T03:57:25;7.60;;;4.18;;
19675;SDS011;39539;52.202;9.876;2023-04-05T03:59:53;5.03;;;3.92;;
19675;SDS011;39539;52.202;9.876;2023-04-05T04:02:18;5.68;;;4.30;;
19675;SDS011;39539;52.202;9.876;2023-04-05T04:04:43;5.15;;;4.68;;
19675;SDS011;39539;52.202;9.876;2023-04-05T04:07:09;6.07;;;4.45;;
19675;SDS011;39539;52.202;9.876;2023-04-05T04:09:34;6.10;;;5.00;;
19675;SDS011;39539;52.202;9.876;2023-04-05T04:12:00;5.88;;;4.60;;
19675;SDS011;39539;52.202;9.876;2023-04-05T04:14:25;5.72;;;4.20;;
19675;SDS011;39539;52.202;9.876;2023-04-05T04:16:51;8.70;;;4.78;;
19675;SDS011;39539;52.202;9.876;2023-04-05T04:19:17;4.45;;;4.00;;
19675;SDS011;39539;52.202;9.876;2023-04-05T04:21:42;4.57;;;4.18;;
19675;SDS011;39539;52.202;9.876;2023-04-05T04:24:18;4.68;;;4.22;;
19675;SDS011;39539;52.202;9.876;2023-04-05T04:26:47;4.75;;;4.25;;
19675;SDS011;39539;52.202;9.876;2023-04-05T04:29:13;5.30;;;4.35;;
19675;SDS011;39539;52.202;9.876;2023-04-05T04:31:40;4.68;;;4.22;;
19675;SDS011;39539;52.202;9.876;2023-04-05T04:34:09;4.82;;;4.20;;
19675;SDS011;39539;52.202;9.876;2023-04-05T04:36:35;4.47;;;4.10;;
19675;SDS011;39539;52.202;9.876;2023-04-05T04:39:03;4.93;;;4.43;;
19675;SDS011;39539;52.202;9.876;2023-04-05T04:41:29;5.25;;;4.43;;
19675;SDS011;39539;52.202;9.876;2023-04-05T04:43:57;5.57;;;4.28;;
19675;SDS011;39539;52.202;9.876;2023-04-05T04:46:30;4.63;;;4.03;;
19675;SDS011;39539;52.202;9.876;2023-04-05T04:49:01;8.73;;;4.57;;
19675;SDS011;39539;52.202;9.876;2023-04-05T04:51:30;4.93;;;4.03;;
19675;SDS011;39539;52.202;9.876;2023-04-05T04:53:56;5.47;;;4.55;;
19675;SDS011;39539;52.202;9.876;2023-04-05T04:56:21;14.85;;;5.07;;
19675;SDS011;39539;52.202;9.876;2023-04-05T04:58:47;6.30;;;5.10;;
19675;SDS011;39539;52.202;9.876;2023-04-05T05:01:12;6.35;;;5.03;;
19675;SDS011;39539;52.202;9.876;2023-04-05T05:03:37;5.53;;;4.95;;
19675;SDS011;39539;52.202;9.876;2023-04-05T05:06:03;4.30;;;3.90;;
19675;SDS011;39539;52.202;9.876;2023-04-05T05:08:29;6.32;;;4.78;;
19675;SDS011;39539;52.202;9.876;2023-04-05T05:10:54;4.43;;;4.05;;
19675;SDS011;39539;52.202;9.876;2023-04-05T05:13:20;25.50;;;4.75;;
19675;SDS011;39539;52.202;9.876;2023-04-05T05:15:45;9.02;;;4.47;;
19675;SDS011;39539;52.202;9.876;2023-04-05T05:18:12;4.00;;;3.60;;
19675;SDS011;39539;52.202;9.876;2023-04-05T05:20:38;7.30;;;4.07;;
19675;SDS011;39539;52.202;9.876;2023-04-05T05:23:03;4.97;;;3.97;;
19675;SDS011;39539;52.202;9.876;2023-04-05T05:25:29;6.03;;;4.07;;
19675;SDS011;39539;52.202;9.876;2023-04-05T05:27:55;4.88;;;4.28;;
19675;SDS011;39539;52.202;9.876;2023-04-05T05:30:21;5.18;;;4.25;;
19675;SDS011;39539;52.202;9.876;2023-04-05T05:32:46;7.93;;;4.25;;
19675;SDS011;39539;52.202;9.876;2023-04-05T05:35:12;7.82;;;4.75;;
19675;SDS011;39539;52.202;9.876;2023-04-05T05:37:38;6.10;;;4.32;;
19675;SDS011;39539;52.202;9.876;2023-04-05T05:40:04;6.22;;;4.43;;
19675;SDS011;39539;52.202;9.876;2023-04-05T05:42:30;5.05;;;3.88;;
19675;SDS011;39539;52.202;9.876;2023-04-05T05:45:01;10.80;;;4.63;;
19675;SDS011;39539;52.202;9.876;2023-04-05T05:47:29;4.82;;;4.38;;
19675;SDS011;39539;52.202;9.876;2023-04-05T05:49:54;4.10;;;3.70;;
19675;SDS011;39539;52.202;9.876;2023-04-05T05:52:20;3.75;;;3.45;;
19675;SDS011;39539;52.202;9.876;2023-04-05T05:54:45;4.70;;;3.45;;
19675;SDS011;39539;52.202;9.876;2023-04-05T05:57:11;4.95;;;3.72;;
19675;SDS011;39539;52.202;9.876;2023-04-05T05:59:37;4.03;;;3.33;;
19675;SDS011;39539;52.202;9.876;2023-04-05T06:02:02;3.83;;;3.40;;
19675;SDS011;39539;52.202;9.876;2023-04-05T06:04:28;4.38;;;3.78;;
19675;SDS011;39539;52.202;9.876;2023-04-05T06:06:53;4.15;;;3.45;;
19675;SDS011;39539;52.202;9.876;2023-04-05T06:09:18;3.45;;;3.15;;
19675;SDS011;39539;52.202;9.876;2023-04-05T06:11:44;3.80;;;3.50;;
19675;SDS011;39539;52.202;9.876;2023-04-05T06:14:09;4.38;;;3.97;;
19675;SDS011;39539;52.202;9.876;2023-04-05T06:16:35;9.80;;;4.45;;
19675;SDS011;39539;52.202;9.876;2023-04-05T06:19:00;8.48;;;3.80;;
19675;SDS011;39539;52.202;9.876;2023-04-05T06:21:26;3.60;;;3.30;;
19675;SDS011;39539;52.202;9.876;2023-04-05T06:23:51;4.70;;;3.60;;
19675;SDS011;39539;52.202;9.876;2023-04-05T06:26:21;4.68;;;3.92;;
19675;SDS011;39539;52.202;9.876;2023-04-05T06:28:51;4.25;;;3.80;;
19675;SDS011;39539;52.202;9.876;2023-04-05T06:31:19;5.03;;;3.97;;
19675;SDS011;39539;52.202;9.876;2023-04-05T06:33:45;4.35;;;3.95;;
19675;SDS011;39539;52.202;9.876;2023-04-05T06:36:11;4.68;;;4.28;;
19675;SDS011;39539;52.202;9.876;2023-04-05T06:38:36;5.35;;;4.85;;
19675;SDS011;39539;52.202;9.876;2023-04-05T06:41:02;6.47;;;4.30;;
19675;SDS011;39539;52.202;9.876;2023-04-05T06:43:29;4.97;;;4.20;;
19675;SDS011;39539;52.202;9.876;2023-04-05T06:45:55;4.32;;;3.92;;
19675;SDS011;39539;52.202;9.876;2023-04-05T06:48:21;4.22;;;3.83;;
19675;SDS011;39539;52.202;9.876;2023-04-05T06:50:46;5.00;;;4.18;;
19675;SDS011;39539;52.202;9.876;2023-04-05T06:53:12;5.57;;;4.35;;
19675;SDS011;39539;52.202;9.876;2023-04-05T06:55:47;10.15;;;5.30;;
19675;SDS011;39539;52.202;9.876;2023-04-05T06:58:13;6.05;;;4.53;;
19675;SDS011;39539;52.202;9.876;2023-04-05T07:00:40;5.03;;;3.97;;
19675;SDS011;39539;52.202;9.876;2023-04-05T07:03:06;4.80;;;4.13;;
19675;SDS011;39539;52.202;9.876;2023-04-05T07:05:31;4.90;;;4.40;;
19675;SDS011;39539;52.202;9.876;2023-04-05T07:07:57;5.13;;;4.63;;
19675;SDS011;39539;52.202;9.876;2023-04-05T07:10:22;9.90;;;5.28;;
19675;SDS011;39539;52.202;9.876;2023-04-05T07:12:48;5.20;;;4.80;;
19675;SDS011;39539;52.202;9.876;2023-04-05T07:15:15;5.47;;;4.97;;
19675;SDS011;39539;52.202;9.876;2023-04-05T07:17:41;5.55;;;4.75;;
19675;SDS011;39539;52.202;9.876;2023-04-05T07:20:06;8.23;;;4.68;;
19675;SDS011;39539;52.202;9.876;2023-04-05T07:22:32;6.40;;;5.28;;
19675;SDS011;39539;52.202;9.876;2023-04-05T07:24:58;5.35;;;4.82;;
19675;SDS011;39539;52.202;9.876;2023-04-05T07:27:23;4.90;;;4.40;;
19675;SDS011;39539;52.202;9.876;2023-04-05T07:29:49;7.13;;;4.50;;
19675;SDS011;39539;52.202;9.876;2023-04-05T07:32:15;5.75;;;4.32;;
19675;SDS011;39539;52.202;9.876;2023-04-05T07:34:40;4.65;;;4.22;;
19675;SDS011;39539;52.202;9.876;2023-04-05T07:37:06;4.78;;;4.22;;
19675;SDS011;39539;52.202;9.876;2023-04-05T07:39:32;4.45;;;4.05;;
19675;SDS011;39539;52.202;9.876;2023-04-05T07:41:57;4.60;;;4.20;;
19675;SDS011;39539;52.202;9.876;2023-04-05T07:44:23;5.70;;;4.43;;
19675;SDS011;39539;52.202;9.876;2023-04-05T07:46:48;4.80;;;4.40;;
19675;SDS011;39539;52.202;9.876;2023-04-05T07:49:13;5.18;;;4.68;;
19675;SDS011;39539;52.202;9.876;2023-04-05T07:51:39;4.38;;;3.97;;
19675;SDS011;39539;52.202;9.876;2023-04-05T07:54:07;3.90;;;3.47;;
19675;SDS011;39539;52.202;9.876;2023-04-05T07:56:32;4.10;;;3.80;;
19675;SDS011;39539;52.202;9.876;2023-04-05T07:59:01;3.97;;;3.55;;
19675;SDS011;39539;52.202;9.876;2023-04-05T08:01:26;4.55;;;3.38;;
19675;SDS011;39539;52.202;9.876;2023-04-05T08:03:55;3.60;;;3.30;;
19675;SDS011;39539;52.202;9.876;2023-04-05T08:06:23;3.65;;;3.22;;
19675;SDS011;39539;52.202;9.876;2023-04-05T08:08:49;5.10;;;3.10;;
19675;SDS011;39539;52.202;9.876;2023-04-05T08:11:15;3.40;;;3.10;;
19675;SDS011;39539;52.202;9.876;2023-04-05T08:13:42;5.38;;;3.40;;
19675;SDS011;39539;52.202;9.876;2023-04-05T08:16:09;4.72;;;3.00;;
19675;SDS011;39539;52.202;9.876;2023-04-05T08:18:35;3.75;;;2.95;;
19675;SDS011;39539;52.202;9.876;2023-04-05T08:21:02;7.57;;;3.97;;
19675;SDS011;39539;52.202;9.876;2023-04-05T08:23:27;3.08;;;2.85;;
19675;SDS011;39539;52.202;9.876;2023-04-05T08:25:53;3.28;;;2.90;;
19675;SDS011;39539;52.202;9.876;2023-04-05T08:28:18;5.18;;;2.85;;
19675;SDS011;39539;52.202;9.876;2023-04-05T08:30:44;6.50;;;3.45;;
19675;SDS011;39539;52.202;9.876;2023-04-05T08:33:11;6.85;;;3.03;;
19675;SDS011;39539;52.202;9.876;2023-04-05T08:35:37;3.28;;;2.67;;
19675;SDS011;39539;52.202;9.876;2023-04-05T08:38:04;3.70;;;2.72;;
19675;SDS011;39539;52.202;9.876;2023-04-05T08:40:35;18.30;;;4.03;;
19675;SDS011;39539;52.202;9.876;2023-04-05T08:43:27;6.55;;;3.25;;
19675;SDS011;39539;52.202;9.876;2023-04-05T08:45:57;4.65;;;2.95;;
19675;SDS011;39539;52.202;9.876;2023-04-05T08:48:25;4.60;;;3.10;;
19675;SDS011;39539;52.202;9.876;2023-04-05T08:50:53;3.22;;;2.92;;
19675;SDS011;39539;52.202;9.876;2023-04-05T08:53:19;2.65;;;2.45;;
19675;SDS011;39539;52.202;9.876;2023-04-05T08:55:49;2.92;;;2.67;;
19675;SDS011;39539;52.202;9.876;2023-04-05T08:58:19;5.10;;;3.08;;
19675;SDS011;39539;52.202;9.876;2023-04-05T09:00:49;4.30;;;2.70;;
19675;SDS011;39539;52.202;9.876;2023-04-05T09:03:22;2.65;;;2.45;;
19675;SDS011;39539;52.202;9.876;2023-04-05T09:05:53;3.72;;;2.90;;
19675;SDS011;39539;52.202;9.876;2023-04-05T09:08:22;2.85;;;2.55;;
19675;SDS011;39539;52.202;9.876;2023-04-05T09:10:49;2.70;;;2.40;;
19675;SDS011;39539;52.202;9.876;2023-04-05T09:13:17;6.40;;;2.75;;
19675;SDS011;39539;52.202;9.876;2023-04-05T09:15:43;2.78;;;2.58;;
19675;SDS011;39539;52.202;9.876;2023-04-05T09:18:09;5.30;;;2.40;;
19675;SDS011;39539;52.202;9.876;2023-04-05T09:20:35;3.28;;;2.50;;
19675;SDS011;39539;52.202;9.876;2023-04-05T09:23:00;2.30;;;2.10;;
19675;SDS011;39539;52.202;9.876;2023-04-05T09:25:32;2.70;;;1.88;;
19675;SDS011;39539;52.202;9.876;2023-04-05T09:28:09;2.70;;;1.80;;
19675;SDS011;39539;52.202;9.876;2023-04-05T09:30:50;3.30;;;2.25;;
19675;SDS011;39539;52.202;9.876;2023-04-05T09:33:17;6.40;;;2.10;;
19675;SDS011;39539;52.202;9.876;2023-04-05T09:35:44;2.88;;;1.98;;
19675;SDS011;39539;52.202;9.876;2023-04-05T09:38:15;2.47;;;1.85;;
19675;SDS011;39539;52.202;9.876;2023-04-05T09:40:45;2.05;;;1.63;;
19675;SDS011;39539;52.202;9.876;2023-04-05T09:43:11;1.80;;;1.70;;
19675;SDS011;39539;52.202;9.876;2023-04-05T09:45:40;1.85;;;1.67;;
19675;SDS011;39539;52.202;9.876;2023-04-05T09:48:07;2.10;;;1.90;;
19675;SDS011;39539;52.202;9.876;2023-04-05T09:50:35;2.30;;;2.10;;
19675;SDS011;39539;52.202;9.876;2023-04-05T09:53:07;2.22;;;2.03;;
19675;SDS011;39539;52.202;9.876;2023-04-05T09:55:34;2.78;;;1.92;;
19675;SDS011;39539;52.202;9.876;2023-04-05T09:58:01;2.53;;;2.33;;
19675;SDS011;39539;52.202;9.876;2023-04-05T10:00:28;2.55;;;2.17;;
19675;SDS011;39539;52.202;9.876;2023-04-05T10:02:57;2.70;;;2.50;;
19675;SDS011;39539;52.202;9.876;2023-04-05T10:05:24;2.40;;;2.20;;
19675;SDS011;39539;52.202;9.876;2023-04-05T10:07:52;2.55;;;2.35;;
19675;SDS011;39539;52.202;9.876;2023-04-05T10:10:19;4.78;;;2.45;;
19675;SDS011;39539;52.202;9.876;2023-04-05T10:15:32;2.85;;;2.33;;
19675;SDS011;39539;52.202;9.876;2023-04-05T10:18:07;2.70;;;2.50;;
19675;SDS011;39539;52.202;9.876;2023-04-05T10:20:40;2.63;;;2.40;;
19675;SDS011;39539;52.202;9.876;2023-04-05T10:23:20;3.17;;;2.65;;
19675;SDS011;39539;52.202;9.876;2023-04-05T10:26:07;3.25;;;2.95;;
19675;SDS011;39539;52.202;9.876;2023-04-05T10:28:46;3.75;;;2.92;;
19675;SDS011;39539;52.202;9.876;2023-04-05T10:31:34;2.97;;;2.78;;
19675;SDS011;39539;52.202;9.876;2023-04-05T10:34:24;3.30;;;3.10;;
19675;SDS011;39539;52.202;9.876;2023-04-05T10:37:01;3.42;;;3.13;;
19675;SDS011;39539;52.202;9.876;2023-04-05T10:39:35;3.10;;;2.90;;
19675;SDS011;39539;52.202;9.876;2023-04-05T10:42:19;3.17;;;2.97;;
19675;SDS011;39539;52.202;9.876;2023-04-05T10:44:52;3.30;;;3.10;;
19675;SDS011;39539;52.202;9.876;2023-04-05T10:47:29;3.70;;;3.40;;
19675;SDS011;39539;52.202;9.876;2023-04-05T10:50:01;3.80;;;3.50;;
19675;SDS011;39539;52.202;9.876;2023-04-05T10:52:29;3.65;;;3.45;;
19675;SDS011;39539;52.202;9.876;2023-04-05T10:54:55;3.80;;;3.50;;
19675;SDS011;39539;52.202;9.876;2023-04-05T10:57:23;3.90;;;3.58;;
19675;SDS011;39539;52.202;9.876;2023-04-05T10:59:51;3.45;;;3.25;;
19675;SDS011;39539;52.202;9.876;2023-04-05T11:02:19;3.50;;;3.20;;
19675;SDS011;39539;52.202;9.876;2023-04-05T11:04:45;3.75;;;3.45;;
19675;SDS011;39539;52.202;9.876;2023-04-05T11:07:19;3.78;;;3.58;;
19675;SDS011;39539;52.202;9.876;2023-04-05T11:20:44;4.47;;;4.07;;
19675;SDS011;39539;52.202;9.876;2023-04-05T11:23:10;3.53;;;2.83;;
19675;SDS011;39539;52.202;9.876;2023-04-05T11:25:37;3.40;;;3.20;;
19675;SDS011;39539;52.202;9.876;2023-04-05T11:28:04;4.05;;;3.15;;
19675;SDS011;39539;52.202;9.876;2023-04-05T11:30:46;3.15;;;2.85;;
19675;SDS011;39539;52.202;9.876;2023-04-05T11:36:06;4.18;;;3.78;;
19675;SDS011;39539;52.202;9.876;2023-04-05T11:38:34;4.65;;;3.42;;
19675;SDS011;39539;52.202;9.876;2023-04-05T11:43:33;2.78;;;2.58;;
19675;SDS011;39539;52.202;9.876;2023-04-05T11:46:07;2.95;;;2.75;;
19675;SDS011;39539;52.202;9.876;2023-04-05T11:48:33;3.03;;;2.72;;
19675;SDS011;39539;52.202;9.876;2023-04-05T11:51:00;3.28;;;3.08;;
19675;SDS011;39539;52.202;9.876;2023-04-05T11:53:36;2.90;;;2.70;;
19675;SDS011;39539;52.202;9.876;2023-04-05T11:56:07;3.35;;;2.65;;
19675;SDS011;39539;52.202;9.876;2023-04-05T11:58:34;2.80;;;2.50;;
19675;SDS011;39539;52.202;9.876;2023-04-05T12:01:03;3.83;;;2.75;;
19675;SDS011;39539;52.202;9.876;2023-04-05T12:03:33;3.55;;;2.88;;
19675;SDS011;39539;52.202;9.876;2023-04-05T12:06:01;2.78;;;2.58;;
19675;SDS011;39539;52.202;9.876;2023-04-05T12:11:08;6.55;;;2.95;;
19675;SDS011;39539;52.202;9.876;2023-04-05T12:13:34;4.32;;;2.80;;
19675;SDS011;39539;52.202;9.876;2023-04-05T12:16:01;3.28;;;2.90;;
19675;SDS011;39539;52.202;9.876;2023-04-05T12:18:29;2.83;;;2.63;;
19675;SDS011;39539;52.202;9.876;2023-04-05T12:20:56;3.17;;;2.60;;
19675;SDS011;39539;52.202;9.876;2023-04-05T12:23:21;3.35;;;3.10;;
19675;SDS011;39539;52.202;9.876;2023-04-05T12:25:48;3.10;;;2.90;;
19675;SDS011;39539;52.202;9.876;2023-04-05T12:28:16;5.07;;;3.10;;
19675;SDS011;39539;52.202;9.876;2023-04-05T12:30:52;3.28;;;2.97;;
19675;SDS011;39539;52.202;9.876;2023-04-05T12:33:31;3.20;;;3.00;;
19675;SDS011;39539;52.202;9.876;2023-04-05T12:36:04;3.22;;;2.92;;
19675;SDS011;39539;52.202;9.876;2023-04-05T12:38:30;3.17;;;2.97;;
19675;SDS011;39539;52.202;9.876;2023-04-05T12:40:59;2.80;;;2.60;;
19675;SDS011;39539;52.202;9.876;2023-04-05T12:43:36;11.23;;;3.80;;
19675;SDS011;39539;52.202;9.876;2023-04-05T12:46:17;3.70;;;3.40;;
19675;SDS011;39539;52.202;9.876;2023-04-05T12:48:43;3.58;;;3.38;;
19675;SDS011;39539;52.202;9.876;2023-04-05T12:51:15;3.50;;;3.28;;
19675;SDS011;39539;52.202;9.876;2023-04-05T12:53:44;3.72;;;3.40;;
19675;SDS011;39539;52.202;9.876;2023-04-05T12:56:14;9.70;;;4.45;;
19675;SDS011;39539;52.202;9.876;2023-04-05T12:58:40;8.40;;;4.68;;
19675;SDS011;39539;52.202;9.876;2023-04-05T13:01:06;3.67;;;3.38;;
19675;SDS011;39539;52.202;9.876;2023-04-05T13:03:31;4.35;;;3.95;;
19675;SDS011;39539;52.202;9.876;2023-04-05T13:05:57;6.68;;;3.92;;
19675;SDS011;39539;52.202;9.876;2023-04-05T13:08:22;3.95;;;3.53;;
19675;SDS011;39539;52.202;9.876;2023-04-05T13:10:50;3.65;;;3.35;;
19675;SDS011;39539;52.202;9.876;2023-04-05T13:13:16;4.10;;;3.70;;
19675;SDS011;39539;52.202;9.876;2023-04-05T13:15:43;4.20;;;3.72;;
19675;SDS011;39539;52.202;9.876;2023-04-05T13:18:08;4.22;;;3.92;;
19675;SDS011;39539;52.202;9.876;2023-04-05T13:20:37;3.72;;;3.38;;
19675;SDS011;39539;52.202;9.876;2023-04-05T13:23:02;4.13;;;3.72;;
19675;SDS011;39539;52.202;9.876;2023-04-05T13:25:28;4.00;;;3.70;;
19675;SDS011;39539;52.202;9.876;2023-04-05T13:27:53;3.42;;;3.20;;
19675;SDS011;39539;52.202;9.876;2023-04-05T13:30:19;3.75;;;3.38;;
19675;SDS011;39539;52.202;9.876;2023-04-05T13:32:46;4.85;;;3.88;;
19675;SDS011;39539;52.202;9.876;2023-04-05T13:35:11;3.85;;;3.40;;
19675;SDS011;39539;52.202;9.876;2023-04-05T13:37:37;12.70;;;4.53;;
19675;SDS011;39539;52.202;9.876;2023-04-05T13:40:03;3.72;;;3.40;;
19675;SDS011;39539;52.202;9.876;2023-04-05T13:42:29;4.35;;;3.95;;
19675;SDS011;39539;52.202;9.876;2023-04-05T13:44:55;4.40;;;4.10;;
19675;SDS011;39539;52.202;9.876;2023-04-05T13:47:20;4.00;;;3.75;;
19675;SDS011;39539;52.202;9.876;2023-04-05T13:49:45;8.13;;;4.15;;
19675;SDS011;39539;52.202;9.876;2023-04-05T13:52:11;4.68;;;4.22;;
19675;SDS011;39539;52.202;9.876;2023-04-05T13:54:36;4.82;;;4.18;;
19675;SDS011;39539;52.202;9.876;2023-04-05T13:57:02;4.50;;;4.07;;
19675;SDS011;39539;52.202;9.876;2023-04-05T13:59:28;4.68;;;4.32;;
19675;SDS011;39539;52.202;9.876;2023-04-05T14:01:53;4.47;;;4.13;;
19675;SDS011;39539;52.202;9.876;2023-04-05T14:04:19;4.32;;;4.03;;
19675;SDS011;39539;52.202;9.876;2023-04-05T14:06:44;5.78;;;4.28;;
19675;SDS011;39539;52.202;9.876;2023-04-05T14:09:12;4.20;;;3.90;;
19675;SDS011;39539;52.202;9.876;2023-04-05T14:11:37;4.22;;;3.92;;
19675;SDS011;39539;52.202;9.876;2023-04-05T14:14:03;4.80;;;4.40;;
19675;SDS011;39539;52.202;9.876;2023-04-05T14:16:29;4.22;;;3.92;;
19675;SDS011;39539;52.202;9.876;2023-04-05T14:18:55;6.78;;;4.53;;
19675;SDS011;39539;52.202;9.876;2023-04-05T14:21:20;4.20;;;3.90;;
19675;SDS011;39539;52.202;9.876;2023-04-05T14:23:47;4.85;;;4.35;;
19675;SDS011;39539;52.202;9.876;2023-04-05T14:26:17;4.47;;;4.05;;
19675;SDS011;39539;52.202;9.876;2023-04-05T14:28:42;3.90;;;3.60;;
19675;SDS011;39539;52.202;9.876;2023-04-05T14:31:08;5.45;;;3.97;;
19675;SDS011;39539;52.202;9.876;2023-04-05T14:33:33;4.65;;;4.07;;
19675;SDS011;39539;52.202;9.876;2023-04-05T14:36:00;4.32;;;4.03;;
19675;SDS011;39539;52.202;9.876;2023-04-05T14:38:27;4.80;;;4.28;;
19675;SDS011;39539;52.202;9.876;2023-04-05T14:40:52;4.38;;;3.97;;
19675;SDS011;39539;52.202;9.876;2023-04-05T14:43:22;4.22;;;3.92;;
19675;SDS011;39539;52.202;9.876;2023-04-05T14:45:51;4.60;;;4.20;;
19675;SDS011;39539;52.202;9.876;2023-04-05T14:48:16;4.65;;;4.30;;
19675;SDS011;39539;52.202;9.876;2023-04-05T14:51:00;4.65;;;4.25;;
19675;SDS011;39539;52.202;9.876;2023-04-05T14:53:25;4.70;;;4.30;;
19675;SDS011;39539;52.202;9.876;2023-04-05T14:55:51;4.90;;;4.07;;
19675;SDS011;39539;52.202;9.876;2023-04-05T14:58:18;4.72;;;4.25;;
19675;SDS011;39539;52.202;9.876;2023-04-05T15:00:43;4.53;;;4.22;;
19675;SDS011;39539;52.202;9.876;2023-04-05T15:03:09;4.60;;;4.30;;
19675;SDS011;39539;52.202;9.876;2023-04-05T15:05:35;4.40;;;4.00;;
19675;SDS011;39539;52.202;9.876;2023-04-05T15:08:00;4.32;;;3.92;;
19675;SDS011;39539;52.202;9.876;2023-04-05T15:10:26;4.50;;;4.10;;
19675;SDS011;39539;52.202;9.876;2023-04-05T15:12:52;4.57;;;4.28;;
19675;SDS011;39539;52.202;9.876;2023-04-05T15:15:18;4.30;;;4.05;;
19675;SDS011;39539;52.202;9.876;2023-04-05T15:17:43;4.38;;;4.07;;
19675;SDS011;39539;52.202;9.876;2023-04-05T15:20:09;4.38;;;3.97;;